Time;durP1;ratioP1;P1;durP2;ratioP2;P2;SDS_P1;SDS_P2;PMS_P1;PMS_P2;Temp;Humidity;BMP_temperature;BMP_pressure;BME280_temperature;BME280_humidity;BME280_pressure;Samples;Min_cycle;Max_cycle;Signal;HPM_P1;HPM_P2
2021/05/19 00:00:10;;;;;;;28.77;15.73;;;;;;;20.63;39.67;100882.63;5113059;27;20487;-55
2021/05/19 00:02:37;;;;;;;28.83;17.03;;;;;;;20.88;39.14;100887.94;5114205;28;20500;-50
2021/05/19 00:05:05;;;;;;;28.20;17.30;;;;;;;20.42;40.32;100890.44;5112568;27;20575;-53
2021/05/19 00:07:33;;;;;;;29.70;16.50;;;;;;;20.33;40.17;100889.56;5113894;28;20463;-57
2021/05/19 00:10:00;;;;;;;25.63;17.90;;;;;;;20.47;39.78;100886.09;5113046;27;20468;-54
2021/05/19 00:12:27;;;;;;;23.90;16.10;;;;;;;20.54;39.39;100886.97;5113530;28;20499;-53
2021/05/19 00:14:54;;;;;;;27.10;16.33;;;;;;;20.24;40.37;100885.16;5111753;28;20497;-54
2021/05/19 00:17:21;;;;;;;23.43;15.33;;;;;;;20.58;39.52;100894.88;5113347;28;20470;-56
2021/05/19 00:19:48;;;;;;;26.13;16.10;;;;;;;20.60;39.34;100892.22;5109502;28;20492;-56
2021/05/19 00:22:16;;;;;;;28.03;17.33;;;;;;;20.54;38.93;100887.88;5113484;28;20460;-52
2021/05/19 00:24:45;;;;;;;26.27;17.53;;;;;;;20.42;39.93;100888.72;5112443;27;20525;-51
2021/05/19 00:27:12;;;;;;;26.17;17.10;;;;;;;19.86;41.32;100882.31;5113849;28;20463;-53
2021/05/19 00:29:40;;;;;;;28.27;15.83;;;;;;;20.03;40.71;100890.28;5112712;27;20484;-52
2021/05/19 00:32:07;;;;;;;24.33;15.80;;;;;;;19.79;41.60;100891.91;5114288;28;20555;-53
2021/05/19 00:34:34;;;;;;;27.03;14.97;;;;;;;19.69;41.74;100893.59;5112296;27;20933;-56
2021/05/19 00:37:01;;;;;;;28.47;15.50;;;;;;;19.92;41.10;100896.34;5113345;28;20461;-58
2021/05/19 00:39:28;;;;;;;25.50;16.67;;;;;;;19.98;40.94;100894.66;5112624;28;20477;-53
2021/05/19 00:41:56;;;;;;;26.70;15.77;;;;;;;19.75;41.20;100893.63;5114350;28;20455;-55
2021/05/19 00:44:23;;;;;;;22.83;14.50;;;;;;;19.75;41.45;100896.25;5112668;28;20480;-55
2021/05/19 00:46:52;;;;;;;24.77;16.00;;;;;;;20.03;40.33;100896.41;5113786;28;20549;-56
2021/05/19 00:49:19;;;;;;;23.23;14.03;;;;;;;20.04;40.18;100898.16;5112813;28;20929;-52
2021/05/19 00:51:46;;;;;;;25.10;14.50;;;;;;;20.05;40.10;100894.66;5114247;28;20456;-54
2021/05/19 00:54:13;;;;;;;23.00;14.83;;;;;;;20.20;39.83;100898.25;5112600;28;20906;-58
2021/05/19 00:56:41;;;;;;;27.83;17.03;;;;;;;20.23;40.14;100900.88;5113463;28;21156;-55
2021/05/19 00:59:10;;;;;;;28.00;16.63;;;;;;;20.03;40.33;100893.81;5112963;28;20558;-57
2021/05/19 01:01:38;;;;;;;25.33;16.37;;;;;;;19.87;40.45;100894.53;5114301;28;20485;-53
2021/05/19 01:04:05;;;;;;;28.30;17.10;;;;;;;19.76;40.61;100900.63;5112996;28;20468;-56
2021/05/19 01:06:37;;;;;;;27.87;18.00;;;;;;;19.92;40.53;100906.81;5113938;28;20921;-54
2021/05/19 01:11:50;;;;;;;27.80;17.07;;;;;;;20.46;39.22;100903.56;5114593;28;20954;-53
2021/05/19 01:14:18;;;;;;;33.03;18.53;;;;;;;20.42;38.93;100906.16;5113518;28;20760;-57
2021/05/19 01:16:45;;;;;;;28.73;18.00;;;;;;;20.44;39.36;100896.56;5116420;28;20445;-55
2021/05/19 01:19:15;;;;;;;26.10;16.80;;;;;;;19.99;39.93;100899.88;5116813;27;20478;-54
2021/05/19 01:21:42;;;;;;;36.93;20.97;;;;;;;19.96;39.97;100902.50;5118228;28;20487;-54
2021/05/19 01:24:11;;;;;;;28.53;16.57;;;;;;;19.71;40.72;100902.31;5117104;28;20552;-58
2021/05/19 01:26:38;;;;;;;28.47;18.30;;;;;;;19.92;40.31;100906.81;5117626;28;20498;-55
2021/05/19 01:29:06;;;;;;;35.27;20.87;;;;;;;19.98;40.12;100902.50;5116848;28;20474;-52
2021/05/19 01:31:33;;;;;;;33.30;19.40;;;;;;;19.67;40.84;100904.03;5117956;28;20511;-51
2021/05/19 01:34:01;;;;;;;38.30;21.80;;;;;;;19.47;41.50;100910.91;5116563;28;20554;-52
2021/05/19 01:36:28;;;;;;;41.00;21.77;;;;;;;19.41;41.41;100911.72;5117353;28;20465;-54
2021/05/19 01:38:55;;;;;;;39.40;21.80;;;;;;;19.29;41.59;100908.13;5116582;27;20479;-53
2021/05/19 01:41:23;;;;;;;36.53;21.03;;;;;;;19.49;41.43;100904.78;5118048;28;20578;-54
2021/05/19 01:43:51;;;;;;;35.50;21.13;;;;;;;19.82;40.48;100905.88;5116265;28;20466;-55
2021/05/19 01:46:18;;;;;;;34.90;20.67;;;;;;;19.60;40.82;100901.38;5116854;28;20549;-57
2021/05/19 01:48:51;;;;;;;35.23;21.50;;;;;;;19.24;41.25;100908.97;5095215;28;20491;-56
2021/05/19 01:51:19;;;;;;;40.00;21.23;;;;;;;19.14;42.14;100911.47;5098047;28;20768;-51
2021/05/19 01:53:47;;;;;;;40.97;22.73;;;;;;;19.44;41.42;100914.38;5096732;28;20545;-54
2021/05/19 01:56:14;;;;;;;38.27;21.80;;;;;;;19.54;40.71;100913.53;5097692;28;20570;-56
2021/05/19 01:58:42;;;;;;;45.87;22.80;;;;;;;19.52;40.88;100914.41;5096087;28;20943;-55
2021/05/19 02:01:09;;;;;;;41.33;22.00;;;;;;;19.53;40.93;100911.78;5097411;28;20830;-54
2021/05/19 02:03:36;;;;;;;37.37;22.13;;;;;;;19.35;41.34;100917.78;5096645;28;20543;-55
2021/05/19 02:06:04;;;;;;;37.17;21.77;;;;;;;19.33;41.40;100921.25;5097513;28;20492;-57
2021/05/19 02:08:31;;;;;;;36.87;21.43;;;;;;;19.16;42.00;100919.34;5096013;28;20571;-56
2021/05/19 02:10:58;;;;;;;41.60;23.47;;;;;;;19.46;40.95;100923.09;5097417;28;20848;-53
2021/05/19 02:13:25;;;;;;;41.77;21.67;;;;;;;19.25;41.64;100918.56;5097325;28;20587;-54
2021/05/19 02:15:53;;;;;;;38.40;20.93;;;;;;;19.28;41.58;100922.06;5096074;28;20479;-53
2021/05/19 02:18:20;;;;;;;42.63;23.27;;;;;;;19.35;41.31;100917.78;5096819;28;20480;-55
2021/05/19 02:20:48;;;;;;;42.07;22.43;;;;;;;19.64;40.51;100918.84;5093873;28;20863;-52
2021/05/19 02:23:15;;;;;;;43.30;24.00;;;;;;;19.47;41.14;100911.75;5097199;28;20531;-53
2021/05/19 02:25:42;;;;;;;41.30;24.07;;;;;;;19.18;41.62;100919.38;5095967;28;20502;-53
2021/05/19 02:28:09;;;;;;;41.17;23.93;;;;;;;19.20;41.78;100922.88;5096379;28;20479;-55
2021/05/19 02:30:37;;;;;;;41.20;22.80;;;;;;;18.87;42.46;100925.16;5092815;28;20563;-57
2021/05/19 02:33:09;;;;;;;44.67;24.40;;;;;;;19.10;42.28;100924.53;5100761;28;20464;-57
2021/05/19 02:35:37;;;;;;;40.80;24.27;;;;;;;19.29;41.49;100922.97;5095528;28;20475;-54
2021/05/19 02:38:04;;;;;;;50.40;26.97;;;;;;;19.20;42.10;100929.00;5096516;28;20484;-55
2021/05/19 02:40:32;;;;;;;47.90;26.87;;;;;;;19.14;42.63;100926.31;5095455;28;20487;-53
2021/05/19 02:42:59;;;;;;;44.87;25.40;;;;;;;18.98;42.99;100922.66;5096811;28;20471;-52
2021/05/19 02:45:26;;;;;;;48.43;25.90;;;;;;;19.74;41.26;100918.03;5095633;28;20485;-52
2021/05/19 02:47:53;;;;;;;50.57;26.80;;;;;;;19.89;40.83;100919.00;5096437;28;20520;-54
2021/05/19 02:50:21;;;;;;;49.10;26.87;;;;;;;19.26;41.74;100918.56;5095302;28;20469;-57
2021/05/19 02:52:48;;;;;;;50.57;25.10;;;;;;;19.64;41.20;100913.63;5096489;28;21198;-55
2021/05/19 02:55:15;;;;;;;52.23;27.57;;;;;;;19.92;40.43;100908.53;5095222;28;20525;-54
2021/05/19 02:57:43;;;;;;;45.80;26.70;;;;;;;19.86;40.28;100903.28;5096124;28;20541;-58
2021/05/19 03:00:11;;;;;;;47.10;27.50;;;;;;;19.46;41.02;100910.00;5095035;28;20567;-57
2021/05/19 03:02:39;;;;;;;46.60;26.40;;;;;;;19.64;40.85;100909.25;5096495;28;20892;-53
2021/05/19 03:05:07;;;;;;;50.33;27.37;;;;;;;19.71;40.42;100904.94;5095109;28;20586;-54
2021/05/19 03:07:35;;;;;;;48.43;28.00;;;;;;;19.77;40.22;100909.31;5095933;28;20837;-49
2021/05/19 03:10:04;;;;;;;46.53;26.87;;;;;;;19.19;41.40;100922.00;5095021;28;20474;-55
2021/05/19 03:12:31;;;;;;;45.93;26.90;;;;;;;19.28;41.54;100922.06;5096442;28;20456;-56
2021/05/19 03:14:58;;;;;;;50.10;28.37;;;;;;;18.95;42.09;100922.59;5095088;28;20565;-52
2021/05/19 03:17:25;;;;;;;50.13;27.43;;;;;;;18.85;42.20;100921.63;5096087;28;20457;-52
2021/05/19 03:19:52;;;;;;;52.33;28.30;;;;;;;19.30;41.84;100922.09;5095005;28;20780;-54
2021/05/19 03:22:19;;;;;;;79.97;29.43;;;;;;;19.40;41.26;100915.19;5095988;28;20562;-55
2021/05/19 03:24:48;;;;;;;57.57;28.63;;;;;;;19.37;41.40;100921.28;5094780;28;20487;-54
2021/05/19 03:27:15;;;;;;;60.90;31.00;;;;;;;19.70;40.75;100922.38;5095906;28;20455;-55
2021/05/19 03:29:42;;;;;;;55.73;28.83;;;;;;;19.13;41.96;100922.81;5094920;28;20491;-52
2021/05/19 03:32:10;;;;;;;49.93;29.23;;;;;;;19.59;41.10;100925.78;5096112;28;20823;-54
2021/05/19 03:34:37;;;;;;;52.03;28.90;;;;;;;19.14;41.50;100929.78;5094416;28;20484;-52
2021/05/19 03:37:04;;;;;;;52.43;28.50;;;;;;;18.96;42.93;100925.25;5114803;28;20546;-58
2021/05/19 03:39:31;;;;;;;49.80;28.70;;;;;;;19.65;40.73;100924.06;5114244;28;20478;-54
2021/05/19 03:41:59;;;;;;;136.90;30.53;;;;;;;19.63;40.99;100922.34;5116272;28;20487;-52
2021/05/19 03:44:26;;;;;;;78.03;28.57;;;;;;;19.64;40.76;100930.19;5114834;28;20502;-54
2021/05/19 03:46:54;;;;;;;54.40;29.00;;;;;;;19.64;41.13;100929.31;5115811;28;20451;-53
2021/05/19 03:49:21;;;;;;;86.13;31.03;;;;;;;19.73;40.71;100928.50;5114428;28;20765;-54
2021/05/19 03:51:48;;;;;;;51.57;28.57;;;;;;;19.83;41.05;100928.56;5116186;28;20462;-54
2021/05/19 03:54:16;;;;;;;62.57;30.13;;;;;;;20.19;39.90;100931.41;5114699;28;20468;-57
2021/05/19 03:56:43;;;;;;;80.47;29.70;;;;;;;20.19;39.90;100934.03;5115710;28;20462;-57
2021/05/19 03:59:11;;;;;;;54.10;29.23;;;;;;;19.65;40.98;100931.06;5114789;28;20476;-50
2021/05/19 04:01:38;;;;;;;51.93;28.83;;;;;;;19.66;41.23;100930.19;5115876;28;20797;-55
2021/05/19 04:04:05;;;;;;;58.53;31.40;;;;;;;18.78;43.10;100943.34;5111629;28;20474;-53
2021/05/19 04:06:32;;;;;;;56.10;30.40;;;;;;;19.00;42.65;100947.94;5115407;28;20970;-56
2021/05/19 04:09:00;;;;;;;48.80;27.53;;;;;;;18.88;42.85;100947.81;5114434;28;20548;-54
2021/05/19 04:11:27;;;;;;;55.07;30.47;;;;;;;19.46;42.09;100941.41;5115923;28;20455;-55
2021/05/19 04:13:54;;;;;;;52.77;29.97;;;;;;;19.56;41.82;100947.56;5114432;28;20921;-54
2021/05/19 04:16:22;;;;;;;51.47;29.30;;;;;;;19.71;41.13;100946.81;5115394;28;20993;-54
2021/05/19 04:18:49;;;;;;;49.70;28.17;;;;;;;19.43;41.66;100951.81;5114914;28;20478;-55
2021/05/19 04:21:16;;;;;;;50.17;28.40;;;;;;;19.76;41.04;100942.50;5115819;28;20517;-55
2021/05/19 04:23:44;;;;;;;44.30;25.90;;;;;;;19.56;41.28;100948.47;5114194;28;20825;-56
2021/05/19 04:26:11;;;;;;;49.77;27.10;;;;;;;19.74;41.21;100951.19;5115687;28;20465;-56
2021/05/19 04:28:38;;;;;;;51.43;27.87;;;;;;;19.51;41.48;100950.16;5113632;28;20890;-54
2021/05/19 04:31:05;;;;;;;50.43;28.43;;;;;;;19.82;41.28;100955.63;5115325;28;20490;-55
2021/05/19 04:33:34;;;;;;;46.97;27.30;;;;;;;19.96;40.78;100952.25;5114255;28;20452;-53
2021/05/19 04:36:01;;;;;;;47.30;27.90;;;;;;;20.00;41.13;100953.13;5115584;28;20483;-52
2021/05/19 04:38:28;;;;;;;50.20;28.23;;;;;;;20.03;40.58;100963.59;5115227;28;20484;-57
2021/05/19 04:40:55;;;;;;;44.63;27.80;;;;;;;20.25;40.44;100961.97;5115010;28;20492;-51
2021/05/19 04:43:23;;;;;;;43.53;26.37;;;;;;;20.29;39.83;100962.88;5115428;28;20886;-56
2021/05/19 04:45:50;;;;;;;46.20;27.20;;;;;;;20.41;39.83;100967.31;5114123;28;20484;-53
2021/05/19 04:48:17;;;;;;;48.27;25.90;;;;;;;19.75;41.22;100972.16;5115336;28;20483;-52
2021/05/19 04:50:45;;;;;;;48.87;27.57;;;;;;;19.72;41.32;100971.22;5116121;28;20475;-52
2021/05/19 04:53:13;;;;;;;44.30;26.03;;;;;;;20.32;40.36;100966.41;5119345;28;20496;-56
2021/05/19 04:55:40;;;;;;;45.23;27.30;;;;;;;20.10;40.52;100968.91;5118046;28;20483;-53
2021/05/19 04:58:07;;;;;;;48.27;27.90;;;;;;;20.37;40.58;100972.50;5118828;28;20515;-55
2021/05/19 05:00:36;;;;;;;46.53;25.67;;;;;;;20.50;40.33;100975.19;5117877;28;20558;-55
2021/05/19 05:03:03;;;;;;;41.87;26.50;;;;;;;20.03;41.01;100976.69;5119329;28;20456;-54
2021/05/19 05:05:30;;;;;;;44.73;25.80;;;;;;;19.93;41.88;100983.59;5117988;28;20879;-53
2021/05/19 05:07:58;;;;;;;42.67;26.07;;;;;;;19.89;41.94;100989.69;5118720;28;20478;-54
2021/05/19 05:10:26;;;;;;;45.37;27.93;;;;;;;20.09;41.55;100988.09;5117920;28;20476;-49
2021/05/19 05:12:53;;;;;;;43.43;26.60;;;;;;;20.27;41.37;100989.09;5119085;28;20517;-54
2021/05/19 05:15:21;;;;;;;43.47;25.77;;;;;;;19.83;42.15;100994.00;5117692;28;20479;-56
2021/05/19 05:17:48;;;;;;;43.03;26.40;;;;;;;19.96;42.34;100999.38;5118578;28;20547;-57
2021/05/19 05:20:15;;;;;;;42.33;25.10;;;;;;;20.07;42.25;100992.47;5117322;28;20478;-52
2021/05/19 05:22:43;;;;;;;44.03;26.20;;;;;;;19.86;42.48;100992.28;5118534;28;20610;-52
2021/05/19 05:25:13;;;;;;;40.13;25.20;;;;;;;19.43;43.36;100996.28;5112731;28;20556;-48
2021/05/19 05:27:40;;;;;;;45.40;27.00;;;;;;;19.83;42.91;101000.97;5118437;28;20456;-51
2021/05/19 05:30:09;;;;;;;37.50;23.60;;;;;;;19.96;42.85;100994.13;5117094;28;20570;-53
2021/05/19 05:32:36;;;;;;;42.87;24.90;;;;;;;20.26;42.26;100999.53;5118580;28;20548;-55
2021/05/19 05:35:03;;;;;;;46.07;25.37;;;;;;;20.25;42.00;100996.03;5116955;28;20928;-54
2021/05/19 05:37:31;;;;;;;44.67;27.00;;;;;;;20.72;41.17;101001.50;5118152;28;20447;-57
2021/05/19 05:39:58;;;;;;;44.97;27.63;;;;;;;20.61;41.87;101002.31;5117322;27;20529;-54
2021/05/19 05:42:26;;;;;;;42.47;25.33;;;;;;;20.37;41.68;101006.56;5118099;28;20515;-55
2021/05/19 05:44:53;;;;;;;37.77;25.17;;;;;;;20.05;42.37;101004.66;5116883;28;20477;-54
2021/05/19 05:47:20;;;;;;;38.30;23.93;;;;;;;20.38;42.03;101002.22;5117989;28;20457;-54
2021/05/19 05:49:49;;;;;;;40.07;24.40;;;;;;;20.54;41.66;101007.53;5116625;28;20564;-53
2021/05/19 05:52:16;;;;;;;39.83;24.43;;;;;;;21.04;40.58;101009.47;5118010;28;20544;-54
2021/05/19 05:54:43;;;;;;;40.17;24.03;;;;;;;20.30;42.51;101011.78;5116757;28;20469;-52
2021/05/19 05:57:10;;;;;;;48.03;27.13;;;;;;;20.13;42.90;101011.69;5117694;28;20457;-54
2021/05/19 05:59:38;;;;;;;39.60;24.90;;;;;;;20.39;42.64;101013.59;5116540;28;20988;-55
2021/05/19 06:02:07;;;;;;;34.40;22.53;;;;;;;21.31;40.39;101012.13;5117356;28;20485;-52
2021/05/19 06:04:34;;;;;;;32.77;22.10;;;;;;;21.00;40.91;101012.97;5113579;28;20956;-54
2021/05/19 06:07:01;;;;;;;32.13;21.53;;;;;;;20.50;42.24;101017.13;5117322;28;20452;-52
2021/05/19 06:09:28;;;;;;;37.27;22.13;;;;;;;20.83;41.68;101023.38;5116446;28;20481;-52
2021/05/19 06:11:55;;;;;;;78.17;41.17;;;;;;;20.67;42.44;101024.19;5117934;28;20457;-52
2021/05/19 06:14:23;;;;;;;86.23;46.00;;;;;;;20.80;42.53;101025.97;5116569;27;20485;-54
2021/05/19 06:16:51;;;;;;;72.23;39.37;;;;;;;20.73;42.78;101029.47;5117230;28;20518;-56
2021/05/19 06:19:18;;;;;;;45.33;23.00;;;;;;;21.26;41.19;101030.50;5116255;27;20480;-52
2021/05/19 06:21:45;;;;;;;63.73;34.10;;;;;;;21.54;41.14;101024.41;5117686;28;20601;-54
2021/05/19 06:24:12;;;;;;;39.60;19.93;;;;;;;20.99;41.50;101020.81;5115703;28;20503;-52
2021/05/19 06:26:40;;;;;;;23.43;16.50;;;;;;;20.87;41.23;101026.94;5117167;28;20461;-54
2021/05/19 06:29:07;;;;;;;30.90;17.60;;;;;;;20.88;41.85;101026.06;5116198;28;20762;-54
2021/05/19 06:31:34;;;;;;;23.17;16.03;;;;;;;20.82;41.35;101029.47;5117321;28;20804;-52
2021/05/19 06:34:03;;;;;;;27.43;15.90;;;;;;;21.20;40.68;101029.59;5115838;28;20476;-55
2021/05/19 06:36:30;;;;;;;21.97;15.53;;;;;;;21.09;40.98;101027.84;5117251;28;20457;-52
2021/05/19 06:38:58;;;;;;;31.83;19.17;;;;;;;21.13;40.86;101024.34;5115874;28;20768;-57
2021/05/19 06:41:25;;;;;;;18.17;12.43;;;;;;;21.61;39.71;101031.41;5117319;28;20510;-52
2021/05/19 06:43:53;;;;;;;29.00;19.20;;;;;;;21.35;40.88;101039.25;5115763;28;20468;-52
2021/05/19 06:46:20;;;;;;;25.27;15.40;;;;;;;21.40;40.41;101035.78;5116812;28;20456;-54
2021/05/19 06:48:47;;;;;;;22.13;12.83;;;;;;;20.90;40.68;101037.41;5115464;28;20479;-54
2021/05/19 06:51:19;;;;;;;17.63;13.10;;;;;;;20.95;40.68;101037.41;5117186;28;20510;-53
2021/05/19 06:53:46;;;;;;;16.87;12.63;;;;;;;21.32;39.75;101045.38;5115923;28;20462;-55
2021/05/19 06:56:14;;;;;;;19.60;13.33;;;;;;;21.52;39.26;101037.53;5116526;28;20479;-54
2021/05/19 07:12:26;;;;;;;13.50;10.40;;;;;;;20.05;41.38;101037.84;5088545;27;20606;-51
2021/05/19 07:14:57;;;;;;;24.93;13.53;;;;;;;20.06;41.56;101044.81;5072847;28;20458;-49
2021/05/19 07:17:24;;;;;;;19.87;12.80;;;;;;;20.37;41.02;101042.41;5072515;28;20458;-50
2021/05/19 07:19:51;;;;;;;77.37;39.57;;;;;;;20.47;41.48;101043.31;5053144;28;20467;-51
2021/05/19 07:22:18;;;;;;;19.63;11.43;;;;;;;20.30;42.49;101044.09;5051287;28;20513;-54
2021/05/19 07:24:48;;;;;;;20.43;12.70;;;;;;;20.71;41.06;101041.69;5052167;28;20551;-49
2021/05/19 07:27:15;;;;;;;84.37;38.30;;;;;;;20.36;40.62;101049.38;5051430;28;20460;-56
2021/05/19 07:29:43;;;;;;;21.60;10.93;;;;;;;20.40;41.18;101041.53;5032000;28;20520;-50
2021/05/19 07:32:11;;;;;;;40.23;20.00;;;;;;;21.03;39.09;101046.19;5030627;28;20931;-52
2021/05/19 07:34:38;;;;;;;33.80;18.70;;;;;;;20.48;39.45;101042.44;5031403;28;20477;-54
2021/05/19 07:37:05;;;;;;;26.60;15.70;;;;;;;20.55;39.45;101044.22;5049797;28;20459;-50
2021/05/19 07:39:32;;;;;;;26.07;11.40;;;;;;;21.18;37.53;101038.34;5050509;28;20938;-51
2021/05/19 07:41:59;;;;;;;14.77;8.50;;;;;;;19.71;40.82;101043.66;5051527;28;20484;-52
2021/05/19 07:44:26;;;;;;;26.27;14.40;;;;;;;19.96;39.32;101051.75;5050477;28;20571;-50
2021/05/19 07:46:53;;;;;;;13.40;8.20;;;;;;;20.44;38.11;101044.19;5052002;28;20467;-52
2021/05/19 07:49:19;;;;;;;15.70;8.27;;;;;;;19.93;39.85;101036.84;5051052;28;20560;-51
2021/05/19 07:51:45;;;;;;;14.17;8.50;;;;;;;19.54;40.49;101044.38;5051221;28;20436;-51
2021/05/19 07:54:15;;;;;;;20.17;11.57;;;;;;;19.67;40.71;101044.47;5049266;28;20490;-50
2021/05/19 07:56:50;;;;;;;17.23;11.10;;;;;;;20.52;38.94;101044.22;5051721;28;20446;-51
2021/05/19 07:59:17;;;;;;;12.23;8.40;;;;;;;21.20;37.65;101040.09;5051006;28;21312;-52
2021/05/19 08:02:01;;;;;;;14.00;8.80;;;;;;;20.37;39.04;101043.25;5051385;28;20482;-53
2021/05/19 08:04:28;;;;;;;12.43;8.87;;;;;;;21.07;38.11;101045.31;5050081;28;20506;-50
2021/05/19 08:06:54;;;;;;;10.83;7.30;;;;;;;21.29;36.46;101034.88;5051569;28;20491;-50
2021/05/19 08:09:20;;;;;;;18.73;9.63;;;;;;;21.50;36.94;101043.66;5044590;28;20469;-50
2021/05/19 08:11:46;;;;;;;13.93;8.97;;;;;;;21.18;36.43;101042.75;5026600;28;20754;-51
2021/05/19 08:14:12;;;;;;;13.17;8.00;;;;;;;20.26;37.78;101050.19;5032418;28;20473;-49
2021/05/19 08:16:38;;;;;;;9.93;6.90;;;;;;;21.01;35.84;101045.31;5038100;28;20438;-54
2021/05/19 08:19:04;;;;;;;14.27;7.70;;;;;;;20.36;38.71;101035.41;5036428;28;20472;-51
2021/05/19 08:21:32;;;;;;;12.73;8.57;;;;;;;21.50;36.69;101048.91;5037299;28;20487;-50
2021/05/19 08:23:59;;;;;;;13.73;8.50;;;;;;;21.57;36.87;101046.28;5035455;28;20564;-53
2021/05/19 08:26:26;;;;;;;17.00;10.30;;;;;;;21.93;37.18;101054.19;5037571;28;20465;-51
2021/05/19 08:28:53;;;;;;;26.30;12.13;;;;;;;20.89;38.61;101047.03;5036443;28;20794;-51
2021/05/19 08:31:21;;;;;;;75.13;24.53;;;;;;;20.91;37.71;101047.03;5037265;28;20911;-50
2021/05/19 08:33:57;;;;;;;83.63;26.93;;;;;;;20.56;37.42;101050.34;5022143;28;20534;-50
2021/05/19 08:36:25;;;;;;;13.33;7.03;;;;;;;20.54;38.58;101050.34;5017657;28;20557;-53
2021/05/19 08:38:53;;;;;;;41.17;14.53;;;;;;;21.56;36.30;101048.91;5028520;28;20481;-53
2021/05/19 08:41:21;;;;;;;13.70;7.53;;;;;;;21.21;37.18;101041.88;5037126;28;20482;-52
2021/05/19 08:43:48;;;;;;;13.23;6.93;;;;;;;20.98;37.02;101047.94;5022771;28;20471;-52
2021/05/19 08:46:15;;;;;;;83.20;27.23;;;;;;;21.29;36.26;101045.38;5017602;28;20844;-51
2021/05/19 08:48:51;;;;;;;113.97;38.27;;;;;;;21.49;36.85;101048.03;5016146;28;20481;-54
2021/05/19 08:51:19;;;;;;;17.17;9.03;;;;;;;20.96;36.83;101054.94;5017040;28;20459;-54
2021/05/19 08:53:46;;;;;;;17.30;8.53;;;;;;;21.35;35.76;101049.75;5016094;28;20748;-53
2021/05/19 08:56:14;;;;;;;9.07;6.40;;;;;;;21.97;34.20;101050.69;5017484;28;20454;-53
2021/05/19 08:58:41;;;;;;;11.37;7.00;;;;;;;22.28;33.09;101043.59;5014179;28;20470;-52
2021/05/19 09:01:08;;;;;;;13.93;7.43;;;;;;;21.99;34.02;101037.53;5013644;28;20531;-53
2021/05/19 09:03:36;;;;;;;15.23;7.37;;;;;;;21.95;34.96;101041.91;4995531;28;20488;-50
2021/05/19 09:06:06;;;;;;;10.10;6.67;;;;;;;21.61;35.12;101046.28;4997703;28;20844;-50
2021/05/19 09:08:37;;;;;;;9.20;5.80;;;;;;;21.36;36.11;101041.88;4996831;28;20478;-51
2021/05/19 09:11:08;;;;;;;12.20;6.30;;;;;;;22.06;35.22;101038.41;5016093;28;20479;-53
2021/05/19 09:13:41;;;;;;;10.87;6.70;;;;;;;21.57;36.01;101043.66;5015643;28;20774;-49
2021/05/19 09:16:09;;;;;;;11.27;7.20;;;;;;;22.16;35.30;101036.66;5016979;28;20468;-50
2021/05/19 09:18:47;;;;;;;11.80;5.87;;;;;;;21.21;36.25;101041.88;5015620;28;20563;-53
2021/05/19 09:21:36;;;;;;;9.10;4.37;;;;;;;21.50;35.56;101043.66;5016723;28;20807;-54
2021/05/19 09:24:06;;;;;;;12.70;5.83;;;;;;;22.11;35.00;101042.78;5015143;28;20531;-50
2021/05/19 09:26:33;;;;;;;10.07;5.63;;;;;;;22.17;34.77;101041.91;5016202;28;20990;-51
2021/05/19 09:29:22;;;;;;;9.07;5.30;;;;;;;22.36;35.13;101036.59;5015580;28;20516;-53
2021/05/19 09:31:57;;;;;;;28.67;12.00;;;;;;;22.46;33.39;101037.44;5001810;28;20931;-52
2021/05/19 09:34:26;;;;;;;8.80;4.90;;;;;;;22.27;34.42;101037.50;4996238;28;20929;-53
2021/05/19 09:36:53;;;;;;;11.37;6.60;;;;;;;22.60;33.76;101035.66;5005515;28;20570;-50
2021/05/19 09:39:20;;;;;;;10.47;6.47;;;;;;;23.01;34.16;101043.34;5015900;28;20474;-50
2021/05/19 09:41:55;;;;;;;17.27;10.07;;;;;;;22.21;34.45;101037.50;5015734;28;20578;-54
2021/05/19 09:44:25;;;;;;;11.33;6.50;;;;;;;22.37;34.62;101043.59;5015334;28;20512;-52
2021/05/19 09:46:52;;;;;;;9.80;5.73;;;;;;;22.73;34.37;101040.88;5016454;28;20471;-48
2021/05/19 09:49:20;;;;;;;9.30;5.93;;;;;;;22.57;34.86;101037.44;5015725;28;20476;-51
2021/05/19 09:52:12;;;;;;;7.63;4.70;;;;;;;22.64;33.67;101034.78;5016134;28;20453;-54
2021/05/19 09:54:42;;;;;;;7.80;4.90;;;;;;;23.11;33.08;101036.31;5015687;28;20773;-53
2021/05/19 09:57:16;;;;;;;7.90;4.50;;;;;;;23.54;33.40;101037.78;5015739;28;20467;-50
2021/05/19 09:59:45;;;;;;;26.23;11.97;;;;;;;22.85;33.13;101039.94;5016171;28;20485;-52
2021/05/19 10:02:13;;;;;;;9.60;5.30;;;;;;;22.65;34.13;101035.63;5015615;28;20488;-51
2021/05/19 10:04:42;;;;;;;18.07;7.27;;;;;;;21.84;33.80;101044.56;5035430;28;20545;-51
2021/05/19 10:07:12;;;;;;;11.07;4.40;;;;;;;23.09;32.70;101038.94;5035962;28;20458;-51
2021/05/19 10:09:39;;;;;;;36.77;14.33;;;;;;;22.69;32.65;101039.13;5035195;28;20505;-49
2021/05/19 10:12:07;;;;;;;18.73;8.20;;;;;;;22.63;33.47;101035.66;5035281;28;20846;-48
2021/05/19 10:14:37;;;;;;;96.27;35.20;;;;;;;22.98;32.83;101036.38;5034458;28;20579;-47
2021/05/19 10:17:07;;;;;;;7.57;3.40;;;;;;;22.73;32.95;101039.13;5035898;28;20523;-53
2021/05/19 10:19:37;;;;;;;9.10;5.00;;;;;;;23.37;32.79;101038.78;5015868;28;20473;-47
2021/05/19 10:22:07;;;;;;;26.73;13.00;;;;;;;23.38;31.80;101039.66;5015430;28;20485;-52
2021/05/19 10:24:48;;;;;;;17.43;6.60;;;;;;;22.86;31.82;101034.66;5015083;28;20473;-54
2021/05/19 10:27:18;;;;;;;25.17;9.13;;;;;;;23.59;32.19;101023.69;5014809;28;20469;-54
2021/05/19 10:29:50;;;;;;;33.47;12.80;;;;;;;22.91;33.06;101030.25;5015881;28;20490;-51
2021/05/19 10:32:31;;;;;;;7.90;3.70;;;;;;;23.76;30.80;101021.78;5014565;28;20546;-53
2021/05/19 10:34:59;;;;;;;17.77;7.87;;;;;;;24.61;30.22;101020.03;5015300;28;20472;-51
2021/05/19 10:37:45;;;;;;;8.07;4.80;;;;;;;23.66;30.68;101015.75;5015047;28;20462;-52
2021/05/19 10:40:29;;;;;;;7.80;4.80;;;;;;;23.84;30.42;101018.19;5015531;28;20458;-52
2021/05/19 10:43:02;;;;;;;6.87;3.60;;;;;;;23.25;31.55;101013.41;5014272;28;20479;-52
2021/05/19 10:45:30;;;;;;;7.83;3.93;;;;;;;23.17;31.77;101021.34;5015548;28;20463;-54
2021/05/19 10:47:58;;;;;;;8.30;3.47;;;;;;;22.78;32.12;101008.41;5019861;28;20795;-54
2021/05/19 10:50:32;;;;;;;5.73;3.00;;;;;;;23.33;31.50;101016.88;5035142;28;20560;-52
2021/05/19 10:58:48;;;;;;;9.87;3.17;;;;;;;24.31;29.09;101003.69;5010838;28;20550;-53
2021/05/19 11:01:18;;;;;;;8.03;2.40;;;;;;;24.70;28.86;101004.09;5007646;28;20533;-55
2021/05/19 11:04:22;;;;;;;7.40;3.57;;;;;;;24.05;29.30;101007.47;5014078;28;20568;-56
2021/05/19 11:07:06;;;;;;;11.40;6.53;;;;;;;24.06;30.12;100999.56;5015007;28;20463;-54
2021/05/19 11:09:35;;;;;;;31.87;18.97;;;;;;;23.89;30.23;101004.13;5007530;28;20778;-54
2021/05/19 11:12:49;;;;;;;12.20;6.73;;;;;;;24.33;29.21;101008.06;4995348;28;20477;-55
2021/05/19 11:15:53;;;;;;;7.90;2.93;;;;;;;24.73;30.40;101000.53;4988546;28;20503;-54
2021/05/19 11:18:23;;;;;;;9.27;2.80;;;;;;;24.38;30.46;100997.47;5014376;28;20571;-55
2021/05/19 11:20:50;;;;;;;5.40;2.67;;;;;;;23.81;30.73;100994.53;5014554;28;20928;-57
2021/05/19 11:23:19;;;;;;;5.53;2.93;;;;;;;23.64;29.93;101001.72;5014191;28;20778;-57
2021/05/19 11:25:47;;;;;;;4.33;2.07;;;;;;;23.98;30.81;100993.47;5015413;28;20461;-54
2021/05/19 11:28:14;;;;;;;77.93;29.57;;;;;;;24.74;28.33;100986.44;5014234;28;20797;-57
2021/05/19 11:30:41;;;;;;;9.83;4.40;;;;;;;24.73;28.67;100984.72;5014787;28;20493;-56
2021/05/19 11:33:11;;;;;;;6.50;2.80;;;;;;;24.59;29.53;100993.69;5016568;28;20624;-52
2021/05/19 11:35:39;;;;;;;22.53;8.60;;;;;;;24.82;27.94;100976.72;5015100;28;20949;-54
2021/05/19 11:38:11;;;;;;;72.27;23.93;;;;;;;25.21;28.53;100978.75;5006938;28;20544;-52
2021/05/19 11:40:41;;;;;;;29.63;13.83;;;;;;;24.67;29.53;100977.78;4995175;28;20464;-54